Time;durP1;ratioP1;P1;durP2;ratioP2;P2;SDS_P1;SDS_P2;PMS_P1;PMS_P2;Temp;Humidity;BMP_temperature;BMP_pressure;BME280_temperature;BME280_humidity;BME280_pressure;Samples;Min_cycle;Max_cycle;Signal;HPM_P1;HPM_P2
2024/01/23 00:01:27;;;;;;;0.70;0.70;;;7.60;67.70;;;;;;20743;6856;117056;-76
2024/01/23 00:03:52;;;;;;;1.90;1.10;;;7.50;68.00;;;;;;20521;6856;310015;-76
2024/01/23 00:06:18;;;;;;;1.93;1.00;;;7.60;67.80;;;;;;20511;6856;308687;-75
2024/01/23 00:08:43;;;;;;;0.93;0.93;;;7.90;66.40;;;;;;20752;6856;119495;-76
2024/01/23 00:11:09;;;;;;;2.17;1.17;;;8.00;66.10;;;;;;20527;6856;334645;-76
2024/01/23 00:13:35;;;;;;;1.40;0.97;;;8.40;64.70;;;;;;20535;6856;309048;-76
2024/01/23 00:16:02;;;;;;;2.12;0.90;;;8.60;63.60;;;;;;20534;6856;309019;-76
2024/01/23 00:18:27;;;;;;;2.10;1.00;;;8.60;63.60;;;;;;20504;6856;293318;-77
2024/01/23 00:20:53;;;;;;;1.33;1.12;;;8.70;62.80;;;;;;20741;6856;121622;-74
2024/01/23 00:23:19;;;;;;;3.37;1.50;;;8.70;62.80;;;;;;20729;6856;117131;-75
2024/01/23 00:25:45;;;;;;;2.30;1.20;;;8.40;63.50;;;;;;20536;6856;279520;-76
2024/01/23 00:28:10;;;;;;;2.63;1.30;;;8.40;63.50;;;;;;20514;6856;308748;-76
2024/01/23 00:30:38;;;;;;;1.20;1.10;;;8.50;63.70;;;;;;20748;6856;120004;-76
2024/01/23 00:33:03;;;;;;;0.80;0.80;;;8.50;63.10;;;;;;20734;6856;119344;-76
2024/01/23 00:35:30;;;;;;;2.00;1.30;;;8.10;64.50;;;;;;20741;6856;119387;-76
2024/01/23 00:37:55;;;;;;;4.20;1.60;;;8.00;64.40;;;;;;20533;6856;309102;-75
2024/01/23 00:40:21;;;;;;;3.05;1.50;;;8.10;64.40;;;;;;20515;6856;309515;-77
2024/01/23 00:42:46;;;;;;;1.08;0.90;;;8.40;63.30;;;;;;20749;6856;117835;-76
2024/01/23 00:45:12;;;;;;;3.40;1.33;;;8.30;63.10;;;;;;20742;6856;118347;-75
2024/01/23 00:47:38;;;;;;;2.10;1.02;;;8.10;63.10;;;;;;20536;6856;328110;-76
2024/01/23 00:50:04;;;;;;;2.27;1.10;;;8.10;63.10;;;;;;20745;6856;117179;-75
2024/01/23 00:52:30;;;;;;;1.60;1.10;;;8.10;63.10;;;;;;20528;6856;310920;-76
2024/01/23 00:54:59;;;;;;;3.17;1.30;;;8.10;62.40;;;;;;20528;6856;308290;-75
2024/01/23 00:57:21;;;;;;;2.47;0.80;;;8.30;61.50;;;;;;20736;6856;121260;-76
2024/01/23 00:59:47;;;;;;;1.70;1.07;;;8.20;61.50;;;;;;20538;6856;308492;-76
2024/01/23 01:02:12;;;;;;;1.73;1.10;;;8.20;61.00;;;;;;20515;6856;279006;-76
2024/01/23 01:04:38;;;;;;;2.07;1.10;;;8.40;60.40;;;;;;20526;6856;292314;-76
2024/01/23 01:07:04;;;;;;;1.77;0.80;;;8.60;59.30;;;;;;20534;6856;309168;-77
2024/01/23 01:09:29;;;;;;;1.83;1.20;;;8.60;59.30;;;;;;20749;6854;120209;-76
2024/01/23 01:11:55;;;;;;;2.62;0.93;;;8.40;59.60;;;;;;20751;6856;119205;-76
2024/01/23 01:14:24;;;;;;;1.87;1.17;;;7.90;60.70;;;;;;20517;6856;339076;-76
2024/01/23 01:16:47;;;;;;;4.07;1.17;;;7.90;60.70;;;;;;20739;6856;117790;-76
2024/01/23 01:19:13;;;;;;;2.53;1.10;;;7.80;61.20;;;;;;20502;6856;282199;-76
2024/01/23 01:21:40;;;;;;;2.43;0.90;;;7.80;61.70;;;;;;20734;6856;120531;-76
2024/01/23 01:24:06;;;;;;;2.97;0.97;;;7.80;61.70;;;;;;20728;6856;117317;-78
2024/01/23 01:26:31;;;;;;;2.83;1.23;;;7.60;62.30;;;;;;20736;6856;119941;-77
2024/01/23 01:28:57;;;;;;;1.47;0.80;;;7.50;63.10;;;;;;20748;6856;116209;-76
2024/01/23 01:31:22;;;;;;;4.70;1.12;;;7.40;63.80;;;;;;20477;6856;339351;-76
2024/01/23 01:33:48;;;;;;;2.00;1.37;;;7.50;63.70;;;;;;20543;6856;279557;-75
2024/01/23 01:36:13;;;;;;;1.90;1.20;;;7.80;62.90;;;;;;20507;6856;308622;-76
2024/01/23 01:38:39;;;;;;;1.98;1.20;;;8.10;62.10;;;;;;20541;6856;282078;-76
2024/01/23 01:41:05;;;;;;;2.85;1.17;;;8.40;61.40;;;;;;20747;6856;119802;-75
2024/01/23 01:43:30;;;;;;;2.27;1.23;;;8.30;61.40;;;;;;20531;6856;337897;-76
2024/01/23 01:46:07;;;;;;;2.75;1.25;;;8.30;61.20;;;;;;20518;6856;309971;-76
2024/01/23 01:48:32;;;;;;;1.70;1.10;;;8.40;60.50;;;;;;20749;6856;117780;-76
2024/01/23 01:50:58;;;;;;;2.90;1.10;;;8.30;60.60;;;;;;20748;6856;118643;-76
2024/01/23 01:53:24;;;;;;;3.20;0.90;;;8.00;61.20;;;;;;20744;6856;120751;-76
2024/01/23 01:55:49;;;;;;;2.70;1.40;;;7.70;61.80;;;;;;20525;6856;340573;-76
2024/01/23 01:58:15;;;;;;;2.23;0.87;;;7.70;61.60;;;;;;20707;6856;118397;-77
2024/01/23 02:00:41;;;;;;;2.12;1.20;;;7.50;62.20;;;;;;20743;6856;117319;-76
2024/01/23 02:03:07;;;;;;;2.90;1.27;;;7.40;62.10;;;;;;20742;6856;117343;-76
2024/01/23 02:05:32;;;;;;;1.00;0.73;;;7.30;62.80;;;;;;20736;6856;120380;-76
2024/01/23 02:07:58;;;;;;;4.43;1.20;;;7.00;64.10;;;;;;20732;6856;117174;-76
2024/01/23 02:10:25;;;;;;;1.50;1.07;;;7.00;64.10;;;;;;20721;6856;120579;-76
2024/01/23 02:12:50;;;;;;;2.67;1.20;;;6.90;64.50;;;;;;20529;6856;300895;-77
2024/01/23 02:15:17;;;;;;;1.70;1.00;;;7.20;64.00;;;;;;20741;6856;120235;-77
2024/01/23 02:17:44;;;;;;;2.73;1.10;;;7.40;63.70;;;;;;20530;6856;308600;-77
2024/01/23 02:20:10;;;;;;;3.23;1.17;;;7.40;63.70;;;;;;20532;6854;279448;-78
2024/01/23 02:22:35;;;;;;;2.53;1.40;;;7.70;62.70;;;;;;20547;6855;279555;-76
2024/01/23 02:25:01;;;;;;;2.53;1.20;;;7.90;61.70;;;;;;20539;6856;307786;-76
2024/01/23 02:27:26;;;;;;;1.50;1.40;;;8.20;60.90;;;;;;20754;6856;120222;-77
2024/01/23 02:29:52;;;;;;;1.67;0.97;;;8.10;61.00;;;;;;20761;6856;121370;-77
2024/01/23 02:32:19;;;;;;;1.83;1.17;;;7.80;61.60;;;;;;20540;6856;280786;-77
2024/01/23 02:34:45;;;;;;;2.83;1.10;;;7.80;61.60;;;;;;20541;6856;309565;-76
2024/01/23 02:37:10;;;;;;;1.90;1.27;;;8.00;61.00;;;;;;20529;6856;339152;-79
2024/01/23 02:39:36;;;;;;;2.15;1.40;;;8.20;60.40;;;;;;20747;6856;118314;-76
2024/01/23 02:42:03;;;;;;;2.50;0.97;;;8.10;60.60;;;;;;20744;6856;117466;-76
2024/01/23 02:44:28;;;;;;;2.47;1.30;;;7.90;61.40;;;;;;20502;6856;311917;-75
2024/01/23 02:46:55;;;;;;;1.95;1.33;;;7.90;61.10;;;;;;20549;6856;309453;-74
2024/01/23 02:49:22;;;;;;;3.22;1.40;;;8.00;60.30;;;;;;20238;6856;338204;-76
2024/01/23 02:51:48;;;;;;;2.07;1.07;;;8.20;59.70;;;;;;20767;6856;118574;-76
2024/01/23 02:54:14;;;;;;;2.45;1.23;;;8.10;60.00;;;;;;20749;6856;121209;-76
2024/01/23 02:56:40;;;;;;;3.47;1.10;;;7.80;60.60;;;;;;20539;6856;279402;-77
2024/01/23 02:59:06;;;;;;;3.07;1.30;;;7.80;60.70;;;;;;20738;6856;119279;-79
2024/01/23 03:01:31;;;;;;;2.33;1.30;;;7.80;60.90;;;;;;20531;6856;303293;-76
2024/01/23 03:03:58;;;;;;;3.63;1.50;;;8.00;60.10;;;;;;20564;6856;314541;-81
2024/01/23 03:06:23;;;;;;;2.37;1.47;;;8.00;60.10;;;;;;20740;6856;118556;-76
2024/01/23 03:08:50;;;;;;;5.10;1.63;;;7.90;60.20;;;;;;20557;6856;278525;-76
2024/01/23 03:11:18;;;;;;;3.87;1.43;;;7.90;60.50;;;;;;20735;6856;116166;-76
2024/01/23 03:13:44;;;;;;;2.63;1.40;;;7.90;60.20;;;;;;20511;6856;308669;-75
2024/01/23 03:16:10;;;;;;;3.10;1.33;;;7.90;60.20;;;;;;20712;6856;149747;-76
2024/01/23 03:18:35;;;;;;;3.87;1.52;;;7.90;60.50;;;;;;20525;6856;278671;-75
2024/01/23 03:21:02;;;;;;;2.43;1.53;;;7.90;60.50;;;;;;20723;6856;117114;-78
2024/01/23 03:23:28;;;;;;;4.67;1.33;;;7.70;60.90;;;;;;20743;6856;117146;-76
2024/01/23 03:25:53;;;;;;;1.87;1.30;;;7.70;61.10;;;;;;20740;6856;119586;-75
2024/01/23 03:28:19;;;;;;;4.28;1.45;;;7.50;61.70;;;;;;20513;6856;279535;-81
2024/01/23 03:30:45;;;;;;;3.77;0.90;;;7.60;61.80;;;;;;20745;6856;117385;-75
2024/01/23 03:33:12;;;;;;;4.77;1.43;;;7.60;61.40;;;;;;20747;6854;116989;-76
2024/01/23 03:35:36;;;;;;;5.03;1.62;;;7.50;61.90;;;;;;20522;6856;309852;-76
2024/01/23 03:38:04;;;;;;;1.90;1.07;;;7.60;61.50;;;;;;20750;6856;117988;-76
2024/01/23 03:40:32;;;;;;;1.40;1.30;;;7.60;61.50;;;;;;20725;6856;117368;-77
2024/01/23 03:42:57;;;;;;;3.03;1.50;;;7.40;61.80;;;;;;20512;6856;283864;-76
2024/01/23 03:45:23;;;;;;;2.23;1.30;;;7.50;61.40;;;;;;20739;6856;117340;-76
2024/01/23 03:47:48;;;;;;;5.45;1.65;;;7.50;61.50;;;;;;20531;6856;338652;-76
2024/01/23 03:50:14;;;;;;;3.73;1.60;;;7.60;61.00;;;;;;20511;6856;337985;-76
2024/01/23 03:52:40;;;;;;;6.80;1.90;;;7.90;60.30;;;;;;20532;6856;309186;-76
2024/01/23 03:55:08;;;;;;;6.63;1.80;;;8.20;59.80;;;;;;20527;6856;310432;-76
2024/01/23 03:57:34;;;;;;;2.53;1.03;;;8.30;59.10;;;;;;20746;6856;117134;-76
2024/01/23 03:59:59;;;;;;;5.10;1.80;;;8.20;59.40;;;;;;20535;6856;310049;-76
2024/01/23 04:02:25;;;;;;;5.77;1.70;;;8.20;59.50;;;;;;20510;6856;315074;-76
2024/01/23 04:04:50;;;;;;;4.53;1.73;;;8.30;59.30;;;;;;20737;6856;117288;-77
2024/01/23 04:07:16;;;;;;;4.72;1.90;;;8.20;59.40;;;;;;20528;6856;338709;-76
2024/01/23 04:09:42;;;;;;;4.12;1.80;;;8.10;59.70;;;;;;20751;6856;117125;-77
2024/01/23 04:12:07;;;;;;;3.50;1.47;;;8.00;60.00;;;;;;20750;6856;117193;-77
2024/01/23 04:14:33;;;;;;;4.25;1.30;;;7.50;61.50;;;;;;20728;6856;117547;-76
2024/01/23 04:16:59;;;;;;;6.00;1.77;;;7.50;61.40;;;;;;20747;6856;121130;-76
2024/01/23 04:19:25;;;;;;;6.15;1.70;;;7.30;62.10;;;;;;20747;6856;117852;-76
2024/01/23 04:21:52;;;;;;;7.23;2.30;;;7.30;63.30;;;;;;20532;6856;338237;-76
2024/01/23 04:24:18;;;;;;;5.07;1.80;;;7.30;62.90;;;;;;20517;6856;279225;-75
2024/01/23 04:26:46;;;;;;;5.93;1.77;;;7.60;62.60;;;;;;20528;6856;309621;-77
2024/01/23 04:29:12;;;;;;;3.40;1.70;;;7.80;62.40;;;;;;20746;6856;118061;-76
2024/01/23 04:31:38;;;;;;;5.10;1.60;;;7.80;61.90;;;;;;20741;6856;117332;-76
2024/01/23 04:34:04;;;;;;;5.77;1.83;;;7.60;62.40;;;;;;20743;6856;117648;-76
2024/01/23 04:36:30;;;;;;;5.70;1.60;;;7.20;63.60;;;;;;20713;6856;117798;-76
2024/01/23 04:38:55;;;;;;;5.80;1.80;;;7.20;63.60;;;;;;20743;6856;118740;-76
2024/01/23 04:41:22;;;;;;;6.77;2.10;;;7.00;64.10;;;;;;20531;6856;308172;-76
2024/01/23 04:43:47;;;;;;;7.03;2.33;;;7.20;64.40;;;;;;20530;6854;309937;-76
2024/01/23 04:46:12;;;;;;;8.00;2.00;;;7.50;64.00;;;;;;20513;6855;320756;-75
2024/01/23 04:48:39;;;;;;;4.55;2.00;;;7.70;63.30;;;;;;20744;6856;119877;-77
2024/01/23 04:51:06;;;;;;;6.90;2.40;;;7.70;63.10;;;;;;20534;6856;308508;-76
2024/01/23 04:53:32;;;;;;;9.03;1.83;;;7.70;63.30;;;;;;20747;6856;117281;-76
2024/01/23 04:55:57;;;;;;;6.18;1.67;;;7.70;63.40;;;;;;20738;6856;117368;-76
2024/01/23 04:58:23;;;;;;;7.27;1.93;;;7.50;64.10;;;;;;20723;6856;117146;-76
2024/01/23 05:00:48;;;;;;;11.97;2.20;;;7.30;64.70;;;;;;20746;6856;118540;-76
2024/01/23 05:03:14;;;;;;;6.83;2.20;;;7.10;65.20;;;;;;20740;6856;117317;-75
2024/01/23 05:05:39;;;;;;;5.90;1.57;;;7.00;65.80;;;;;;20734;6856;117136;-76
2024/01/23 05:08:05;;;;;;;12.67;2.47;;;6.90;66.30;;;;;;20749;6856;119232;-76
2024/01/23 05:10:31;;;;;;;6.53;2.10;;;6.90;66.70;;;;;;20518;6856;329493;-75
2024/01/23 05:12:56;;;;;;;5.73;2.23;;;7.00;66.70;;;;;;20740;6856;118554;-76
2024/01/23 05:15:22;;;;;;;4.15;1.65;;;7.10;66.00;;;;;;20740;6856;120720;-75
2024/01/23 05:17:48;;;;;;;4.70;2.10;;;6.90;66.30;;;;;;20748;6856;117117;-75
2024/01/23 05:20:14;;;;;;;2.40;1.30;;;6.90;66.30;;;;;;20711;6856;120845;-75
2024/01/23 05:22:40;;;;;;;2.80;1.43;;;6.70;66.50;;;;;;20527;6856;314143;-75
2024/01/23 05:25:06;;;;;;;3.05;1.80;;;6.90;66.00;;;;;;20524;6856;278590;-76
2024/01/23 05:27:33;;;;;;;2.83;1.33;;;7.10;64.20;;;;;;20746;6856;117142;-75
2024/01/23 05:29:58;;;;;;;1.90;0.57;;;7.10;64.20;;;;;;20745;6856;117857;-78
2024/01/23 05:32:24;;;;;;;2.10;0.80;;;6.90;64.50;;;;;;20719;6856;120502;-75
2024/01/23 05:34:49;;;;;;;3.57;1.10;;;6.70;65.10;;;;;;20528;6856;338530;-75
2024/01/23 05:37:16;;;;;;;1.97;0.80;;;7.00;64.10;;;;;;20512;6856;338746;-74
2024/01/23 05:39:42;;;;;;;1.30;0.67;;;7.00;63.80;;;;;;20670;6856;117166;-73
2024/01/23 05:42:08;;;;;;;2.23;0.83;;;6.90;63.70;;;;;;20744;6856;119345;-73
2024/01/23 05:44:33;;;;;;;3.43;3.10;;;6.70;64.10;;;;;;20723;6856;118192;-73
2024/01/23 05:46:59;;;;;;;2.17;1.10;;;6.50;64.80;;;;;;20732;6856;119776;-75
2024/01/23 05:49:26;;;;;;;2.30;1.30;;;6.30;65.30;;;;;;20530;6856;338239;-76
2024/01/23 05:51:51;;;;;;;1.20;0.98;;;6.40;65.30;;;;;;20504;6856;338207;-74
2024/01/23 05:54:17;;;;;;;1.63;1.00;;;6.70;64.30;;;;;;20517;6856;278756;-75
2024/01/23 05:56:43;;;;;;;2.05;0.80;;;7.10;62.50;;;;;;20521;6855;337542;-74
2024/01/23 05:59:09;;;;;;;1.60;0.67;;;7.10;62.50;;;;;;20731;6856;119635;-75
2024/01/23 06:01:34;;;;;;;2.10;0.60;;;6.90;62.40;;;;;;20513;6856;281134;-74
2024/01/23 06:04:00;;;;;;;0.97;0.50;;;6.90;62.80;;;;;;20728;6856;119766;-74
2024/01/23 06:06:26;;;;;;;0.90;0.60;;;6.80;63.00;;;;;;20721;6856;120466;-74
2024/01/23 06:08:52;;;;;;;1.37;0.50;;;6.60;64.20;;;;;;20524;6856;337310;-74
2024/01/23 06:11:17;;;;;;;0.87;0.63;;;6.60;64.20;;;;;;20732;6856;119755;-74
2024/01/23 06:13:45;;;;;;;1.33;0.57;;;6.50;64.10;;;;;;20527;6856;280983;-74
2024/01/23 06:16:10;;;;;;;1.57;0.50;;;6.60;64.20;;;;;;20522;6856;279693;-75
2024/01/23 06:18:36;;;;;;;0.60;0.50;;;6.80;63.60;;;;;;20508;6856;309364;-75
2024/01/23 06:21:04;;;;;;;2.00;0.27;;;7.00;62.90;;;;;;20536;6856;278451;-76
2024/01/23 06:23:30;;;;;;;1.53;0.40;;;7.20;62.60;;;;;;20747;6856;119840;-76
2024/01/23 06:25:55;;;;;;;1.80;0.50;;;7.00;62.60;;;;;;20530;6856;290906;-75
2024/01/23 06:28:21;;;;;;;1.20;0.55;;;7.00;63.40;;;;;;20503;6856;281072;-74
2024/01/23 06:30:47;;;;;;;1.33;0.70;;;7.30;62.50;;;;;;20523;6856;316735;-77
2024/01/23 06:33:14;;;;;;;1.90;0.43;;;7.20;62.50;;;;;;20740;6856;117230;-73
2024/01/23 06:35:40;;;;;;;1.95;0.80;;;7.10;63.40;;;;;;20528;6856;280154;-74
2024/01/23 06:38:05;;;;;;;0.50;0.50;;;7.10;63.00;;;;;;20745;6856;121848;-74
2024/01/23 06:40:31;;;;;;;2.78;0.77;;;7.00;63.20;;;;;;20509;6856;278544;-75
2024/01/23 06:42:58;;;;;;;3.10;0.87;;;7.00;63.50;;;;;;20531;6856;278797;-74
2024/01/23 06:45:23;;;;;;;1.67;0.80;;;7.20;63.20;;;;;;20520;6856;338023;-75
2024/01/23 06:47:49;;;;;;;1.80;0.70;;;7.40;62.80;;;;;;20524;6856;308814;-75
2024/01/23 06:50:15;;;;;;;2.67;0.70;;;7.50;62.10;;;;;;20694;6856;119358;-75
2024/01/23 06:52:40;;;;;;;2.23;0.70;;;7.40;62.10;;;;;;20690;6856;117374;-73
2024/01/23 06:55:06;;;;;;;3.70;1.07;;;7.00;62.80;;;;;;20719;6856;117241;-75
2024/01/23 06:57:32;;;;;;;1.10;0.50;;;6.70;63.60;;;;;;20524;6856;308140;-75
2024/01/23 06:59:57;;;;;;;1.03;0.60;;;6.70;64.20;;;;;;20532;6856;311961;-72
2024/01/23 07:02:23;;;;;;;0.93;0.60;;;6.90;63.70;;;;;;20505;6856;338616;-73
2024/01/23 07:04:48;;;;;;;0.87;0.40;;;7.10;63.10;;;;;;20739;6856;117788;-73
2024/01/23 07:07:14;;;;;;;2.13;0.70;;;7.00;62.90;;;;;;20728;6854;120807;-75
2024/01/23 07:09:41;;;;;;;1.00;0.50;;;6.70;63.60;;;;;;20530;6856;303001;-75
2024/01/23 07:12:06;;;;;;;1.33;0.73;;;6.70;64.10;;;;;;20739;6856;117057;-75
2024/01/23 07:14:33;;;;;;;0.53;0.50;;;6.50;64.80;;;;;;20721;6856;120830;-76
2024/01/23 07:16:58;;;;;;;1.00;0.90;;;6.50;64.80;;;;;;20734;6856;121629;-75
2024/01/23 07:19:24;;;;;;;0.60;0.50;;;6.30;65.20;;;;;;20729;6856;119240;-75
2024/01/23 07:21:49;;;;;;;0.67;0.50;;;6.10;65.60;;;;;;20727;6856;122366;-75
2024/01/23 07:24:17;;;;;;;1.87;0.70;;;6.00;66.10;;;;;;20701;6856;130012;-75
2024/01/23 07:26:40;;;;;;;2.30;0.83;;;5.80;66.40;;;;;;20725;6856;120623;-74
2024/01/23 07:29:06;;;;;;;1.15;0.82;;;5.70;66.90;;;;;;20506;6856;337966;-74
2024/01/23 07:31:33;;;;;;;1.10;0.87;;;5.90;66.40;;;;;;20715;6856;119397;-75
2024/01/23 07:33:58;;;;;;;1.63;0.70;;;5.90;66.40;;;;;;20687;6856;118878;-77
2024/01/23 07:36:23;;;;;;;0.80;0.80;;;5.90;66.70;;;;;;20666;6856;118716;-76
2024/01/23 07:38:50;;;;;;;2.83;0.93;;;5.60;67.80;;;;;;20708;6856;119524;-76
2024/01/23 07:41:17;;;;;;;2.03;1.00;;;5.60;67.80;;;;;;20734;6856;120729;-76
2024/01/23 07:43:42;;;;;;;1.67;0.90;;;5.60;68.40;;;;;;20727;6856;117117;-76
2024/01/23 07:46:08;;;;;;;4.60;2.00;;;5.60;69.20;;;;;;20531;6856;278439;-76
2024/01/23 07:48:34;;;;;;;4.33;2.43;;;5.90;69.30;;;;;;20513;6856;279136;-77
2024/01/23 07:51:00;;;;;;;12.68;10.27;;;6.40;67.20;;;;;;20738;6856;117190;-75
2024/01/23 07:53:26;;;;;;;2.47;2.27;;;6.40;67.20;;;;;;20738;6856;118074;-75
2024/01/23 07:55:52;;;;;;;5.10;3.00;;;6.40;67.40;;;;;;20523;6856;308178;-75
2024/01/23 07:58:16;;;;;;;4.27;3.97;;;6.50;67.30;;;;;;20507;6856;308692;-75
2024/01/23 08:00:42;;;;;;;4.17;3.20;;;6.80;66.20;;;;;;20529;6856;309019;-76
2024/01/23 08:03:08;;;;;;;3.03;2.83;;;7.10;65.00;;;;;;20526;6856;329606;-76
2024/01/23 08:05:33;;;;;;;3.30;3.03;;;7.30;63.90;;;;;;20527;6856;338220;-75
2024/01/23 08:07:59;;;;;;;2.73;1.50;;;7.50;63.30;;;;;;20743;6856;117680;-76
2024/01/23 08:10:26;;;;;;;3.77;2.07;;;7.40;63.40;;;;;;20505;6856;308691;-76
2024/01/23 08:12:51;;;;;;;5.47;4.95;;;7.40;63.70;;;;;;20521;6856;279056;-75
2024/01/23 08:15:23;;;;;;;5.23;3.57;;;7.60;63.10;;;;;;20518;6856;279811;-76
2024/01/23 08:17:47;;;;;;;5.03;1.83;;;7.80;62.50;;;;;;20723;6854;117373;-77
2024/01/23 08:20:13;;;;;;;2.27;2.00;;;7.60;62.60;;;;;;20732;6855;118110;-76
2024/01/23 08:22:38;;;;;;;2.00;1.80;;;7.30;63.40;;;;;;20721;6856;117963;-76
2024/01/23 08:25:05;;;;;;;6.33;3.23;;;6.90;65.30;;;;;;20726;6856;118129;-76
2024/01/23 08:27:30;;;;;;;12.03;10.03;;;6.90;65.30;;;;;;20525;6856;279184;-76
2024/01/23 08:29:57;;;;;;;4.43;3.23;;;7.20;64.60;;;;;;20528;6856;308833;-77
2024/01/23 08:32:24;;;;;;;3.62;1.75;;;7.20;64.70;;;;;;20495;6856;338208;-76
2024/01/23 08:34:49;;;;;;;3.85;1.50;;;7.50;63.80;;;;;;20518;6856;338141;-77
2024/01/23 08:37:16;;;;;;;1.70;1.37;;;7.70;63.00;;;;;;20731;6856;117086;-77
2024/01/23 08:39:42;;;;;;;1.97;1.40;;;7.60;63.00;;;;;;20510;6856;311478;-77
2024/01/23 08:42:08;;;;;;;3.10;1.90;;;7.60;63.20;;;;;;20509;6856;279481;-77
2024/01/23 08:44:33;;;;;;;3.17;1.50;;;7.80;62.90;;;;;;20505;6856;280391;-77
2024/01/23 08:46:59;;;;;;;3.70;1.70;;;7.80;62.40;;;;;;20735;6856;118212;-77
2024/01/23 08:49:25;;;;;;;2.73;1.33;;;7.80;62.40;;;;;;20712;6856;117218;-77
2024/01/23 08:51:52;;;;;;;5.82;1.50;;;7.60;63.40;;;;;;20741;6856;117173;-76
2024/01/23 08:54:19;;;;;;;3.63;2.17;;;7.40;65.10;;;;;;20508;6856;308394;-76
2024/01/23 08:56:44;;;;;;;3.23;1.67;;;7.40;64.50;;;;;;20732;6856;117392;-76
2024/01/23 08:59:09;;;;;;;5.18;3.40;;;7.40;64.40;;;;;;20530;6856;279580;-77
2024/01/23 09:01:35;;;;;;;4.00;2.50;;;7.60;64.60;;;;;;20740;6856;118872;-78
2024/01/23 09:04:00;;;;;;;5.20;1.67;;;7.60;64.80;;;;;;20734;6856;119311;-76
2024/01/23 09:06:26;;;;;;;3.45;2.10;;;7.50;65.50;;;;;;20706;6856;117424;-76
2024/01/23 09:08:52;;;;;;;2.47;1.60;;;7.40;66.20;;;;;;20727;6856;117568;-76
2024/01/23 09:11:18;;;;;;;4.20;1.90;;;7.40;66.70;;;;;;20535;6856;308696;-76
2024/01/23 09:13:43;;;;;;;5.87;3.47;;;7.60;66.80;;;;;;20525;6856;338403;-76
2024/01/23 09:16:09;;;;;;;12.60;11.45;;;8.00;65.90;;;;;;20526;6856;308645;-77
2024/01/23 09:18:34;;;;;;;6.43;3.17;;;8.30;64.80;;;;;;20493;6856;410830;-77
2024/01/23 09:21:02;;;;;;;5.13;2.53;;;8.70;64.40;;;;;;20762;6856;67792;-76
2024/01/23 09:23:27;;;;;;;2.47;1.73;;;8.60;64.30;;;;;;20523;6856;301770;-77
2024/01/23 09:25:53;;;;;;;5.43;2.00;;;8.80;65.20;;;;;;20530;6856;281574;-76
2024/01/23 09:28:18;;;;;;;4.17;2.10;;;9.10;64.00;;;;;;20507;6856;309993;-76
2024/01/23 09:30:44;;;;;;;4.40;1.87;;;9.40;63.40;;;;;;20531;6854;308130;-77
2024/01/23 09:33:10;;;;;;;4.50;2.83;;;9.60;62.30;;;;;;20738;6856;119723;-76
2024/01/23 09:35:35;;;;;;;5.30;3.67;;;9.60;62.50;;;;;;20736;6856;119222;-76
2024/01/23 09:38:01;;;;;;;10.27;7.30;;;9.40;63.20;;;;;;20739;6856;119728;-76
2024/01/23 09:40:26;;;;;;;5.40;2.80;;;9.20;63.90;;;;;;20507;6856;338560;-77
2024/01/23 09:42:53;;;;;;;3.83;2.17;;;9.30;64.00;;;;;;20733;6856;120267;-76
2024/01/23 09:45:18;;;;;;;7.13;5.47;;;9.30;64.00;;;;;;20511;6856;281483;-77
2024/01/23 09:47:44;;;;;;;5.77;4.37;;;9.40;63.80;;;;;;20525;6856;308574;-77
2024/01/23 09:50:10;;;;;;;22.50;13.83;;;9.80;63.10;;;;;;20736;6856;118211;-76
2024/01/23 09:52:36;;;;;;;12.10;7.40;;;9.80;63.10;;;;;;20711;6856;120134;-76
2024/01/23 09:55:01;;;;;;;4.15;3.05;;;9.60;63.40;;;;;;20732;6856;117353;-76
2024/01/23 09:57:27;;;;;;;7.57;4.57;;;9.50;64.00;;;;;;20736;6856;119293;-77
2024/01/23 09:59:52;;;;;;;6.37;3.80;;;9.40;64.60;;;;;;20526;6856;308719;-77
2024/01/23 10:02:20;;;;;;;3.83;2.43;;;9.60;63.60;;;;;;20720;6856;121143;-77
2024/01/23 10:04:45;;;;;;;8.30;2.95;;;9.60;63.50;;;;;;20505;6856;308375;-75
2024/01/23 10:07:12;;;;;;;6.33;3.00;;;9.90;63.00;;;;;;20719;6856;119210;-75
2024/01/23 10:09:38;;;;;;;9.37;3.70;;;9.90;63.00;;;;;;20717;6856;117218;-76
2024/01/23 10:12:02;;;;;;;5.77;3.03;;;9.90;63.10;;;;;;20497;6856;280724;-75
2024/01/23 10:14:28;;;;;;;6.67;2.80;;;10.10;62.00;;;;;;20499;6856;295847;-76
2024/01/23 10:16:54;;;;;;;3.50;2.45;;;10.40;60.90;;;;;;20732;6856;119672;-76
2024/01/23 10:19:19;;;;;;;8.07;2.40;;;10.50;60.50;;;;;;20524;6856;278964;-75
2024/01/23 10:21:46;;;;;;;7.90;2.85;;;11.00;58.80;;;;;;20514;6856;278656;-76
2024/01/23 10:24:12;;;;;;;6.65;3.85;;;11.30;58.50;;;;;;20511;6856;309917;-75
2024/01/23 10:26:37;;;;;;;5.47;3.67;;;11.30;58.50;;;;;;20716;6856;119679;-74
2024/01/23 10:29:04;;;;;;;8.35;3.35;;;11.30;57.90;;;;;;20525;6856;308843;-74
2024/01/23 10:31:29;;;;;;;8.77;2.47;;;11.30;56.70;;;;;;20752;6856;119593;-74
2024/01/23 10:33:54;;;;;;;7.25;3.00;;;11.10;57.00;;;;;;20754;6856;117374;-75
2024/01/23 10:36:20;;;;;;;6.12;3.65;;;10.80;57.20;;;;;;20727;6856;118685;-75
2024/01/23 10:38:49;;;;;;;5.33;2.47;;;10.50;57.70;;;;;;20757;6856;120143;-77
2024/01/23 10:41:12;;;;;;;6.20;2.40;;;10.00;58.60;;;;;;20743;6854;117313;-77
2024/01/23 10:43:38;;;;;;;5.63;2.53;;;10.00;58.60;;;;;;20740;6855;117882;-75
2024/01/23 10:46:04;;;;;;;5.37;2.00;;;9.90;60.40;;;;;;20738;6856;119848;-77
2024/01/23 10:48:30;;;;;;;6.65;2.03;;;9.80;60.80;;;;;;20718;6856;117167;-78
2024/01/23 10:50:55;;;;;;;9.00;2.47;;;9.80;61.30;;;;;;20739;6856;118491;-76
2024/01/23 10:53:22;;;;;;;6.17;2.40;;;9.90;61.60;;;;;;20536;6856;319786;-76
2024/01/23 10:55:47;;;;;;;8.77;2.62;;;10.10;58.90;;;;;;20756;6856;117152;-77
2024/01/23 10:58:23;;;;;;;6.93;2.60;;;10.30;58.00;;;;;;20747;6856;117337;-76
2024/01/23 11:00:49;;;;;;;4.70;2.20;;;10.30;58.10;;;;;;20723;6856;117579;-75
2024/01/23 11:03:14;;;;;;;6.43;2.40;;;10.20;58.20;;;;;;20526;6856;278458;-74
2024/01/23 11:05:46;;;;;;;5.47;2.03;;;10.40;56.90;;;;;;20729;6856;117377;-77
2024/01/23 11:08:17;;;;;;;6.43;2.20;;;10.50;56.90;;;;;;20735;6856;119463;-77
2024/01/23 11:11:22;;;;;;;5.67;4.37;;;10.40;57.20;;;;;;20663;6856;119572;-78
2024/01/23 11:13:57;;;;;;;7.70;3.97;;;10.30;57.60;;;;;;20543;6856;279565;-78
2024/01/23 11:16:23;;;;;;;8.88;5.00;;;10.50;55.40;;;;;;20494;6856;324718;-79
2024/01/23 11:18:52;;;;;;;4.63;2.43;;;10.90;54.70;;;;;;20753;6856;117525;-79
2024/01/23 11:21:15;;;;;;;9.13;3.03;;;11.00;55.00;;;;;;20733;6856;119473;-80
2024/01/23 11:23:44;;;;;;;7.17;2.70;;;10.90;55.10;;;;;;20751;6856;120497;-81
2024/01/23 11:26:14;;;;;;;6.63;3.23;;;10.80;55.60;;;;;;20527;6856;307686;-78
2024/01/23 11:28:35;;;;;;;7.27;2.10;;;10.90;54.30;;;;;;20708;6856;120281;-79
2024/01/23 11:31:18;;;;;;;6.07;2.50;;;11.10;52.20;;;;;;20532;6856;279480;-78
2024/01/23 11:33:43;;;;;;;5.03;1.60;;;11.10;51.80;;;;;;20732;6856;119538;-78
2024/01/23 11:36:23;;;;;;;3.78;1.65;;;11.00;52.60;;;;;;20749;6856;119440;-79
2024/01/23 11:38:49;;;;;;;8.80;1.90;;;11.00;52.60;;;;;;20746;6856;119634;-77
2024/01/23 11:41:15;;;;;;;9.60;5.17;;;10.80;53.30;;;;;;20737;6856;117326;-77
2024/01/23 11:43:41;;;;;;;8.27;4.83;;;10.80;53.90;;;;;;20526;6856;340104;-81
2024/01/23 11:46:12;;;;;;;9.07;4.60;;;11.20;50.60;;;;;;20536;6856;279026;-78
2024/01/23 11:48:36;;;;;;;7.50;3.63;;;11.20;50.60;;;;;;20710;6856;120091;-78
2024/01/23 11:51:03;;;;;;;6.97;3.60;;;11.10;52.00;;;;;;20748;6856;117509;-78
2024/01/23 11:53:29;;;;;;;7.63;3.13;;;11.00;51.90;;;;;;20735;6854;120225;-77
2024/01/23 11:55:54;;;;;;;5.07;2.50;;;10.90;52.60;;;;;;20732;6856;117830;-78
2024/01/23 11:58:19;;;;;;;5.70;2.00;;;10.80;52.80;;;;;;20727;6856;120843;-80
2024/01/23 12:00:45;;;;;;;6.25;2.50;;;10.60;53.30;;;;;;20754;6856;118351;-78
2024/01/23 12:03:20;;;;;;;7.18;2.08;;;10.50;53.60;;;;;;20744;6856;119444;-78
2024/01/23 12:05:36;;;;;;;3.00;2.10;;;10.40;54.10;;;;;;20705;6856;116409;-78
2024/01/23 12:08:03;;;;;;;3.50;2.43;;;10.30;54.10;;;;;;20747;6856;117407;-79
2024/01/23 12:10:30;;;;;;;3.33;1.87;;;10.20;54.10;;;;;;20725;6856;131166;-79
2024/01/23 12:12:56;;;;;;;6.10;1.70;;;10.10;54.20;;;;;;20746;6856;118054;-78
2024/01/23 12:15:21;;;;;;;4.68;2.10;;;10.10;54.60;;;;;;20750;6856;117542;-79
2024/01/23 12:17:49;;;;;;;5.23;1.83;;;10.00;54.80;;;;;;20784;6856;68313;-79
2024/01/23 12:20:13;;;;;;;5.07;1.93;;;10.00;54.60;;;;;;20532;6856;278882;-80
2024/01/23 12:22:38;;;;;;;8.03;1.90;;;10.20;52.90;;;;;;20731;6856;116931;-79
2024/01/23 12:25:04;;;;;;;4.87;1.75;;;10.30;53.00;;;;;;20744;6856;117385;-81
2024/01/23 12:27:30;;;;;;;6.27;1.97;;;10.30;51.70;;;;;;20512;6856;309285;-77
2024/01/23 12:29:56;;;;;;;4.83;1.83;;;10.30;51.70;;;;;;20750;6856;117337;-79
2024/01/23 12:32:21;;;;;;;5.73;1.77;;;10.20;52.00;;;;;;20740;6856;150413;-79
2024/01/23 12:34:48;;;;;;;6.00;2.20;;;10.00;52.70;;;;;;20505;6856;303971;-77
2024/01/23 12:37:14;;;;;;;8.53;2.80;;;10.10;51.50;;;;;;20541;6856;309084;-78
2024/01/23 12:39:41;;;;;;;7.80;2.12;;;10.30;50.50;;;;;;20763;6856;120747;-80